createdAt,value
2023-04-30T00:01:47.402Z,6.88
2023-04-30T00:04:15.352Z,6.88
2023-04-30T00:06:43.283Z,6.87
2023-04-30T00:09:11.197Z,6.86
2023-04-30T00:11:39.062Z,6.83
2023-04-30T00:14:07.110Z,6.80
2023-04-30T00:16:35.125Z,6.77
2023-04-30T00:19:03.006Z,6.73
2023-04-30T00:21:30.971Z,6.70
2023-04-30T00:24:00.839Z,6.67
2023-04-30T00:26:28.836Z,6.64
2023-04-30T00:28:57.250Z,6.61
2023-04-30T00:31:25.467Z,6.58
2023-04-30T00:33:53.358Z,6.55
2023-04-30T00:36:23.609Z,6.53
2023-04-30T00:38:51.458Z,6.52
2023-04-30T00:41:21.265Z,6.54
2023-04-30T00:43:49.185Z,6.56
2023-04-30T00:46:17.404Z,6.56
2023-04-30T00:48:45.715Z,6.55
2023-04-30T00:51:13.626Z,6.56
2023-04-30T00:53:41.807Z,6.56
2023-04-30T00:56:11.086Z,6.54
2023-04-30T00:58:40.536Z,6.53
2023-04-30T01:01:09.031Z,6.51
2023-04-30T01:03:37.068Z,6.47
2023-04-30T01:06:05.092Z,6.43
2023-04-30T01:08:34.037Z,6.38
2023-04-30T01:11:17.677Z,6.34
2023-04-30T01:14:00.225Z,6.29
2023-04-30T01:16:33.660Z,6.25
2023-04-30T01:19:26.061Z,6.21
2023-04-30T01:21:55.892Z,6.17
2023-04-30T01:24:39.086Z,6.17
2023-04-30T01:27:25.678Z,6.20
2023-04-30T01:29:56.309Z,6.23
2023-04-30T01:32:25.661Z,6.24
2023-04-30T01:34:53.712Z,6.25
2023-04-30T01:37:31.781Z,6.26
2023-04-30T01:40:06.777Z,6.26
2023-04-30T01:43:05.656Z,6.24
2023-04-30T01:45:42.594Z,6.20
2023-04-30T01:48:22.767Z,6.16
2023-04-30T01:51:02.444Z,6.11
2023-04-30T01:53:42.841Z,6.10
2023-04-30T01:56:18.643Z,6.06
2023-04-30T01:58:49.049Z,6.02
2023-04-30T02:01:31.760Z,5.98
2023-04-30T02:04:00.768Z,5.94
2023-04-30T02:06:30.475Z,5.93
2023-04-30T02:09:04.341Z,5.94
2023-04-30T02:11:32.451Z,5.95
2023-04-30T02:14:00.442Z,5.94
2023-04-30T02:16:28.481Z,5.95
2023-04-30T02:18:56.498Z,5.95
2023-04-30T02:21:24.487Z,5.94
2023-04-30T02:23:52.373Z,5.94
2023-04-30T02:26:21.728Z,5.92
2023-04-30T02:28:49.598Z,5.90
2023-04-30T02:31:17.649Z,5.88
2023-04-30T02:33:46.954Z,5.86
2023-04-30T02:36:14.975Z,5.84
2023-04-30T02:38:42.901Z,5.80
2023-04-30T02:41:10.904Z,5.76
2023-04-30T02:43:38.873Z,5.73
2023-04-30T02:46:06.894Z,5.71
2023-04-30T02:48:34.933Z,5.67
2023-04-30T02:51:04.209Z,5.67
2023-04-30T02:53:32.176Z,5.66
2023-04-30T02:56:00.534Z,5.65
2023-04-30T02:58:28.543Z,5.65
2023-04-30T03:00:57.528Z,5.65
2023-04-30T03:03:25.687Z,5.65
2023-04-30T03:05:56.816Z,5.65
2023-04-30T03:08:25.735Z,5.63
2023-04-30T03:10:53.908Z,5.61
2023-04-30T03:13:22.077Z,5.59
2023-04-30T03:15:50.151Z,5.57
2023-04-30T03:18:18.246Z,5.54
2023-04-30T03:20:46.498Z,5.51
2023-04-30T03:23:14.699Z,5.48
2023-04-30T03:25:42.693Z,5.46
2023-04-30T03:28:10.611Z,5.47
2023-04-30T03:30:38.571Z,5.48
2023-04-30T03:33:06.978Z,5.51
2023-04-30T03:35:35.166Z,5.56
2023-04-30T03:38:03.353Z,5.64
2023-04-30T03:40:31.736Z,5.72
2023-04-30T03:42:59.805Z,5.81
2023-04-30T03:45:27.809Z,5.90
2023-04-30T03:47:55.936Z,5.99
2023-04-30T03:50:24.055Z,6.07
2023-04-30T03:52:52.343Z,6.17
2023-04-30T03:55:20.397Z,6.29
2023-04-30T03:57:48.443Z,6.42
2023-04-30T04:00:17.080Z,6.57
2023-04-30T04:02:48.117Z,6.72
2023-04-30T04:05:16.446Z,6.87
2023-04-30T04:07:45.695Z,7.01
2023-04-30T04:10:14.050Z,7.13
2023-04-30T04:12:42.412Z,7.26
2023-04-30T04:15:10.721Z,7.36
2023-04-30T04:17:38.938Z,7.47
2023-04-30T04:20:08.468Z,7.56
2023-04-30T04:22:37.069Z,7.66
2023-04-30T04:25:05.318Z,7.78
2023-04-30T04:27:34.335Z,7.91
2023-04-30T04:30:03.785Z,8.05
2023-04-30T04:32:32.934Z,8.21
2023-04-30T04:35:01.633Z,8.36
2023-04-30T04:37:29.609Z,8.51
2023-04-30T04:39:57.813Z,8.69
2023-04-30T04:42:26.326Z,8.87
2023-04-30T04:44:54.366Z,9.05
2023-04-30T04:47:23.088Z,9.24
2023-04-30T04:49:51.467Z,9.46
2023-04-30T04:52:19.500Z,9.64
2023-04-30T04:54:47.913Z,9.79
2023-04-30T04:57:16.103Z,9.95
2023-04-30T04:59:44.001Z,10.11
2023-04-30T05:02:12.074Z,10.25
2023-04-30T05:04:40.222Z,10.40
2023-04-30T05:07:08.289Z,10.53
2023-04-30T05:09:36.266Z,10.65
2023-04-30T05:12:04.705Z,10.70
2023-04-30T05:14:32.731Z,10.72
2023-04-30T05:17:00.813Z,10.75
2023-04-30T05:19:28.943Z,10.75
2023-04-30T05:21:57.118Z,10.75
2023-04-30T05:24:25.094Z,10.86
2023-04-30T05:26:53.157Z,11.30
2023-04-30T05:29:20.999Z,11.98
2023-04-30T05:31:49.203Z,12.64
2023-04-30T05:34:17.473Z,13.26
2023-04-30T05:36:45.904Z,13.93
2023-04-30T05:39:14.475Z,14.53
2023-04-30T05:41:42.840Z,15.06
2023-04-30T05:44:10.964Z,15.54
2023-04-30T05:46:39.037Z,16.08
2023-04-30T05:49:07.038Z,16.47
2023-04-30T05:51:35.094Z,16.86
2023-04-30T05:54:03.347Z,17.19
2023-04-30T05:56:31.380Z,17.62
2023-04-30T05:58:59.311Z,17.90
2023-04-30T06:01:28.912Z,18.25
2023-04-30T06:03:56.972Z,18.58
2023-04-30T06:06:25.164Z,18.79
2023-04-30T06:08:53.215Z,18.82
2023-04-30T06:11:21.614Z,18.87
2023-04-30T06:13:49.594Z,19.17
2023-04-30T06:16:17.942Z,19.53
2023-04-30T06:18:46.264Z,19.86
2023-04-30T06:21:14.381Z,20.14
2023-04-30T06:23:42.283Z,20.40
2023-04-30T06:26:10.396Z,20.53
2023-04-30T06:28:38.270Z,20.84
2023-04-30T06:31:06.356Z,21.09
2023-04-30T06:33:34.351Z,21.25
2023-04-30T06:36:02.666Z,21.54
2023-04-30T06:38:30.623Z,21.85
2023-04-30T06:40:58.637Z,21.94
2023-04-30T06:43:26.622Z,21.69
2023-04-30T06:45:54.704Z,21.78
2023-04-30T06:48:23.277Z,22.08
2023-04-30T06:50:51.455Z,22.01
2023-04-30T06:53:19.725Z,22.06
2023-04-30T06:55:48.949Z,21.99
2023-04-30T06:58:17.517Z,21.75
2023-04-30T07:00:45.559Z,20.65
2023-04-30T07:03:14.211Z,19.88
2023-04-30T07:05:42.520Z,18.62
2023-04-30T07:08:10.617Z,18.12
2023-04-30T07:10:38.763Z,17.79
2023-04-30T07:13:08.496Z,17.29
2023-04-30T07:15:37.332Z,16.89
2023-04-30T07:18:05.471Z,16.80
2023-04-30T07:20:33.710Z,16.57
2023-04-30T07:23:01.958Z,16.39
2023-04-30T07:25:29.885Z,16.19
2023-04-30T07:27:57.871Z,16.29
2023-04-30T07:30:26.468Z,16.42
2023-04-30T07:32:54.587Z,16.70
2023-04-30T07:35:22.622Z,16.71
2023-04-30T07:37:50.712Z,16.77
2023-04-30T07:40:34.524Z,16.93
2023-04-30T07:43:05.198Z,17.17
2023-04-30T07:45:35.001Z,17.26
2023-04-30T07:48:03.101Z,17.02
2023-04-30T07:50:34.300Z,16.81
2023-04-30T07:53:03.106Z,16.79
2023-04-30T07:55:31.366Z,16.92
2023-04-30T07:57:59.757Z,16.58
2023-04-30T08:00:29.588Z,16.45
2023-04-30T08:02:59.260Z,16.19
2023-04-30T08:05:27.545Z,16.31
2023-04-30T08:07:55.521Z,16.73
2023-04-30T08:10:23.541Z,16.92
2023-04-30T08:12:51.477Z,16.89
2023-04-30T08:15:22.001Z,16.43
2023-04-30T08:17:50.772Z,16.50
2023-04-30T08:20:19.243Z,16.70
2023-04-30T08:22:47.395Z,16.82
2023-04-30T08:25:15.509Z,16.90
2023-04-30T08:27:43.532Z,16.88
2023-04-30T08:30:11.777Z,16.93
2023-04-30T08:32:40.267Z,16.69
2023-04-30T08:35:09.445Z,16.83
2023-04-30T08:37:37.308Z,16.70
2023-04-30T08:40:09.675Z,16.56
2023-04-30T08:42:44.839Z,16.47
2023-04-30T08:45:14.607Z,16.57
2023-04-30T08:47:43.477Z,16.53
2023-04-30T08:50:12.160Z,16.70
2023-04-30T08:52:41.396Z,16.83
2023-04-30T08:55:11.273Z,16.73
2023-04-30T08:57:39.404Z,16.78
2023-04-30T09:00:08.534Z,16.75
2023-04-30T09:02:41.638Z,16.56
2023-04-30T09:05:14.355Z,16.29
2023-04-30T09:08:01.090Z,16.16
2023-04-30T09:10:35.325Z,16.29
2023-04-30T09:13:07.240Z,16.33
2023-04-30T09:15:37.307Z,16.24
2023-04-30T09:18:20.083Z,16.24
2023-04-30T09:21:00.842Z,16.45
2023-04-30T09:23:30.113Z,16.62
2023-04-30T09:25:58.189Z,16.94
2023-04-30T09:28:28.888Z,17.14
2023-04-30T09:30:57.804Z,16.89
2023-04-30T09:33:26.005Z,16.82
2023-04-30T09:35:54.053Z,16.97
2023-04-30T09:38:27.292Z,17.11
2023-04-30T09:40:56.042Z,17.17
2023-04-30T09:43:24.076Z,17.06
2023-04-30T09:45:53.065Z,17.05
2023-04-30T09:48:22.827Z,17.12
2023-04-30T09:50:52.128Z,17.33
2023-04-30T09:53:20.627Z,17.52
2023-04-30T09:55:51.147Z,17.41
2023-04-30T09:58:22.390Z,17.13
2023-04-30T10:00:53.001Z,16.88
2023-04-30T10:03:24.090Z,16.90
2023-04-30T10:05:53.364Z,17.15
2023-04-30T10:08:27.507Z,17.45
2023-04-30T10:11:09.215Z,17.76
2023-04-30T10:14:02.881Z,18.00
2023-04-30T10:16:54.975Z,17.88
2023-04-30T10:19:32.484Z,17.70
2023-04-30T10:22:01.829Z,17.38
2023-04-30T10:24:30.567Z,17.09
2023-04-30T10:26:58.746Z,17.25
2023-04-30T10:29:26.750Z,17.47
2023-04-30T10:31:55.541Z,17.58
2023-04-30T10:34:29.632Z,17.70
2023-04-30T10:37:01.683Z,17.67
2023-04-30T10:39:30.219Z,17.60
2023-04-30T10:42:03.676Z,17.78
2023-04-30T10:44:37.525Z,17.93
2023-04-30T10:47:07.306Z,17.81
2023-04-30T10:49:35.703Z,17.83
2023-04-30T10:52:05.382Z,17.83
2023-04-30T10:54:35.954Z,17.74
2023-04-30T10:57:14.812Z,17.74
2023-04-30T10:59:53.819Z,17.72
2023-04-30T11:02:22.077Z,17.67
2023-04-30T11:05:09.116Z,17.63
2023-04-30T11:07:37.948Z,17.62
2023-04-30T11:10:08.824Z,17.52
2023-04-30T11:12:42.267Z,17.51
2023-04-30T11:15:16.518Z,17.60
2023-04-30T11:17:46.243Z,17.73
2023-04-30T11:20:18.915Z,17.86
2023-04-30T11:22:46.968Z,18.19
2023-04-30T11:25:22.643Z,18.44
2023-04-30T11:27:51.082Z,18.59
2023-04-30T11:30:19.660Z,18.52
2023-04-30T11:32:49.541Z,18.50
2023-04-30T11:35:19.950Z,18.59
2023-04-30T11:37:49.025Z,18.78
2023-04-30T11:40:17.006Z,18.86
2023-04-30T11:42:46.715Z,18.83
2023-04-30T11:45:23.569Z,18.77
2023-04-30T11:47:54.748Z,18.72
2023-04-30T11:50:33.113Z,18.77
2023-04-30T11:53:05.620Z,18.77
2023-04-30T11:55:34.853Z,18.72
2023-04-30T11:58:03.950Z,18.77
2023-04-30T12:00:32.092Z,18.83
2023-04-30T12:03:04.113Z,18.76
2023-04-30T12:05:32.176Z,18.53
2023-04-30T12:08:04.532Z,18.53
2023-04-30T12:10:33.215Z,18.63
2023-04-30T12:13:01.123Z,18.60
2023-04-30T12:15:29.834Z,18.42
2023-04-30T12:17:59.740Z,18.40
2023-04-30T12:20:31.442Z,18.45
2023-04-30T12:22:59.577Z,18.47
2023-04-30T12:25:29.531Z,18.43
2023-04-30T12:27:59.871Z,18.37
2023-04-30T12:30:28.281Z,18.41
2023-04-30T12:33:01.315Z,18.61
2023-04-30T12:35:34.229Z,18.66
2023-04-30T12:38:08.415Z,18.51
2023-04-30T12:40:37.268Z,18.58
2023-04-30T12:43:08.134Z,18.49
2023-04-30T12:45:44.183Z,18.34
2023-04-30T12:48:13.709Z,18.29
2023-04-30T12:50:42.520Z,18.45
2023-04-30T12:53:10.686Z,18.78
2023-04-30T12:55:39.493Z,18.94
2023-04-30T12:58:10.556Z,18.85
2023-04-30T13:00:52.336Z,18.88
2023-04-30T13:03:21.975Z,18.80
2023-04-30T13:05:54.178Z,18.65
2023-04-30T13:08:22.183Z,18.77
2023-04-30T13:10:50.156Z,18.70
2023-04-30T13:13:18.767Z,18.62
2023-04-30T13:15:48.347Z,18.75
2023-04-30T13:18:16.740Z,18.65
2023-04-30T13:20:44.947Z,18.56
2023-04-30T13:23:13.056Z,18.69
2023-04-30T13:25:42.202Z,18.67
2023-04-30T13:28:10.374Z,18.64
2023-04-30T13:30:38.689Z,18.65
2023-04-30T13:33:06.687Z,18.67
2023-04-30T13:35:34.650Z,18.70
2023-04-30T13:38:02.751Z,18.59
2023-04-30T13:40:30.708Z,18.52
2023-04-30T13:42:58.629Z,18.36
2023-04-30T13:45:26.643Z,18.16
2023-04-30T13:47:54.857Z,18.30
2023-04-30T13:50:22.871Z,18.56
2023-04-30T13:52:50.846Z,18.79
2023-04-30T13:55:19.016Z,18.68
2023-04-30T13:57:47.226Z,18.58
2023-04-30T14:00:16.327Z,18.43
2023-04-30T14:02:44.655Z,18.59
2023-04-30T14:05:12.727Z,18.57
2023-04-30T14:07:40.745Z,18.67
2023-04-30T14:10:09.189Z,18.63
2023-04-30T14:12:38.511Z,18.59
2023-04-30T14:15:08.413Z,18.58
2023-04-30T14:17:36.379Z,18.75
2023-04-30T14:20:05.137Z,18.76
2023-04-30T14:22:35.911Z,18.63
2023-04-30T14:25:05.419Z,18.69
2023-04-30T14:27:33.658Z,18.77
2023-04-30T14:30:01.996Z,18.85
2023-04-30T14:32:30.179Z,18.96
2023-04-30T14:34:58.302Z,18.75
2023-04-30T14:37:27.171Z,18.69
2023-04-30T14:39:55.648Z,18.61
2023-04-30T14:42:23.924Z,18.75
2023-04-30T14:44:53.281Z,18.86
2023-04-30T14:47:21.755Z,18.83
2023-04-30T14:49:52.338Z,18.69
2023-04-30T14:52:20.390Z,18.67
2023-04-30T14:54:48.373Z,18.68
2023-04-30T14:57:18.956Z,18.75
2023-04-30T14:59:47.176Z,18.80
2023-04-30T15:02:15.216Z,18.54
2023-04-30T15:04:46.350Z,18.57
2023-04-30T15:07:14.696Z,18.74
2023-04-30T15:09:44.873Z,18.91
2023-04-30T15:12:13.162Z,18.94
2023-04-30T15:14:41.705Z,18.84
2023-04-30T15:17:11.364Z,18.76
2023-04-30T15:19:39.481Z,18.65
2023-04-30T15:22:07.993Z,18.59
2023-04-30T15:24:36.407Z,18.58
2023-04-30T15:27:04.600Z,18.64
2023-04-30T15:29:32.547Z,18.68
2023-04-30T15:32:00.649Z,18.68
2023-04-30T15:34:29.615Z,18.65
2023-04-30T15:36:59.215Z,18.65
2023-04-30T15:39:27.143Z,18.62
2023-04-30T15:41:55.564Z,18.54
2023-04-30T15:44:23.544Z,18.49
2023-04-30T15:46:52.334Z,18.46
2023-04-30T15:49:21.312Z,18.37
2023-04-30T15:51:51.957Z,18.26
2023-04-30T15:54:20.116Z,18.21
2023-04-30T15:56:48.022Z,18.20
2023-04-30T15:59:17.756Z,18.20
2023-04-30T16:01:47.198Z,18.10
2023-04-30T16:04:15.194Z,18.02
2023-04-30T16:06:43.331Z,17.96
2023-04-30T16:09:12.637Z,17.86
2023-04-30T16:11:40.821Z,17.71
2023-04-30T16:14:08.876Z,17.58
2023-04-30T16:16:36.987Z,17.49
2023-04-30T16:19:07.652Z,17.46
2023-04-30T16:21:38.679Z,17.39
2023-04-30T16:24:07.384Z,17.35
2023-04-30T16:26:36.346Z,17.33
2023-04-30T16:29:05.042Z,17.32
2023-04-30T16:31:33.690Z,17.28
2023-04-30T16:34:01.582Z,17.21
2023-04-30T16:36:29.553Z,17.11
2023-04-30T16:38:57.651Z,17.03
2023-04-30T16:41:25.821Z,16.99
2023-04-30T16:43:53.708Z,16.97
2023-04-30T16:46:21.769Z,16.94
2023-04-30T16:48:49.834Z,16.86
2023-04-30T16:51:17.829Z,16.81
2023-04-30T16:53:45.757Z,16.75
2023-04-30T16:56:13.661Z,16.73
2023-04-30T16:58:41.816Z,16.73
2023-04-30T17:01:09.854Z,16.67
2023-04-30T17:03:38.153Z,16.58
2023-04-30T17:06:07.034Z,16.51
2023-04-30T17:08:35.064Z,16.44
2023-04-30T17:11:03.032Z,16.36
2023-04-30T17:13:32.366Z,16.29
2023-04-30T17:16:02.244Z,16.22
2023-04-30T17:18:30.521Z,16.17
2023-04-30T17:20:58.624Z,16.14
2023-04-30T17:23:26.670Z,16.10
2023-04-30T17:25:54.725Z,16.04
2023-04-30T17:28:23.182Z,15.99
2023-04-30T17:30:51.383Z,15.92
2023-04-30T17:33:19.655Z,15.86
2023-04-30T17:35:47.804Z,15.80
2023-04-30T17:38:16.125Z,15.78
2023-04-30T17:40:44.632Z,15.78
2023-04-30T17:43:12.567Z,15.78
2023-04-30T17:45:40.888Z,15.73
2023-04-30T17:48:09.203Z,15.67
2023-04-30T17:50:37.261Z,15.62
2023-04-30T17:53:05.261Z,15.56
2023-04-30T17:55:33.622Z,15.49
2023-04-30T17:58:01.850Z,15.42
2023-04-30T18:00:31.002Z,15.36
2023-04-30T18:02:59.178Z,15.30
2023-04-30T18:05:27.440Z,15.23
2023-04-30T18:07:55.543Z,15.15
2023-04-30T18:10:23.519Z,15.09
2023-04-30T18:12:52.664Z,15.01
2023-04-30T18:15:20.739Z,14.92
2023-04-30T18:17:48.764Z,14.84
2023-04-30T18:20:16.942Z,14.76
2023-04-30T18:22:44.966Z,14.65
2023-04-30T18:25:13.829Z,14.56
2023-04-30T18:27:41.989Z,14.45
2023-04-30T18:30:14.238Z,14.35
2023-04-30T18:32:44.350Z,14.25
2023-04-30T18:35:12.426Z,14.16
2023-04-30T18:37:40.628Z,14.07
2023-04-30T18:40:09.550Z,13.99
2023-04-30T18:42:38.785Z,13.92
2023-04-30T18:45:09.165Z,13.84
2023-04-30T18:47:37.180Z,13.78
2023-04-30T18:50:07.303Z,13.74
2023-04-30T18:52:35.258Z,13.71
2023-04-30T18:55:03.443Z,13.69
2023-04-30T18:57:31.536Z,13.67
2023-04-30T18:59:59.613Z,13.68
2023-04-30T19:02:27.602Z,13.73
2023-04-30T19:04:55.913Z,13.76
2023-04-30T19:07:23.885Z,13.80
2023-04-30T19:09:53.573Z,13.83
2023-04-30T19:12:21.992Z,13.85
2023-04-30T19:14:50.401Z,13.87
2023-04-30T19:17:21.494Z,13.88
2023-04-30T19:19:50.340Z,13.88
2023-04-30T19:22:18.336Z,13.88
2023-04-30T19:24:46.355Z,13.86
2023-04-30T19:27:14.320Z,13.83
2023-04-30T19:29:42.393Z,13.80
2023-04-30T19:32:10.549Z,13.77
2023-04-30T19:34:38.668Z,13.74
2023-04-30T19:37:07.269Z,13.70
2023-04-30T19:39:36.624Z,13.67
2023-04-30T19:42:05.210Z,13.64
2023-04-30T19:44:33.490Z,13.59
2023-04-30T19:47:01.554Z,13.57
2023-04-30T19:49:29.631Z,13.54
2023-04-30T19:51:58.391Z,13.51
2023-04-30T19:54:26.362Z,13.49
2023-04-30T19:56:54.696Z,13.46
2023-04-30T19:59:22.666Z,13.43
2023-04-30T20:01:52.737Z,13.41
2023-04-30T20:04:21.126Z,13.40
2023-04-30T20:06:56.155Z,13.38
2023-04-30T20:09:25.241Z,13.37
2023-04-30T20:11:54.449Z,13.37
2023-04-30T20:14:24.052Z,13.36
2023-04-30T20:16:55.229Z,13.35
2023-04-30T20:19:23.372Z,13.35
2023-04-30T20:21:52.181Z,13.32
2023-04-30T20:24:21.869Z,13.31
2023-04-30T20:26:49.971Z,13.30
2023-04-30T20:29:20.616Z,13.29
2023-04-30T20:31:48.672Z,13.26
2023-04-30T20:34:17.027Z,13.23
2023-04-30T20:36:45.116Z,13.20
2023-04-30T20:39:14.755Z,13.17
2023-04-30T20:41:43.831Z,13.11
2023-04-30T20:44:11.809Z,13.05
2023-04-30T20:46:39.787Z,12.97
2023-04-30T20:49:11.068Z,12.91
2023-04-30T20:51:39.519Z,12.86
2023-04-30T20:54:09.489Z,12.80
2023-04-30T20:56:37.488Z,12.76
2023-04-30T20:59:05.965Z,12.70
2023-04-30T21:01:34.113Z,12.64
2023-04-30T21:04:02.517Z,12.57
2023-04-30T21:06:32.243Z,12.50
2023-04-30T21:09:00.826Z,12.42
2023-04-30T21:11:29.085Z,12.32
2023-04-30T21:13:57.532Z,12.26
2023-04-30T21:16:28.122Z,12.20
2023-04-30T21:18:56.710Z,12.15
2023-04-30T21:21:24.646Z,12.11
2023-04-30T21:23:52.673Z,12.07
2023-04-30T21:26:21.826Z,12.02
2023-04-30T21:28:52.721Z,11.98
2023-04-30T21:31:20.770Z,11.95
2023-04-30T21:33:48.899Z,11.92
2023-04-30T21:36:17.822Z,11.87
2023-04-30T21:38:46.160Z,11.83
2023-04-30T21:41:15.421Z,11.78
2023-04-30T21:43:43.763Z,11.73
2023-04-30T21:46:13.550Z,11.68
2023-04-30T21:48:41.701Z,11.62
2023-04-30T21:51:15.126Z,11.56
2023-04-30T21:53:44.412Z,11.50
2023-04-30T21:56:12.901Z,11.45
2023-04-30T21:58:41.131Z,11.42
2023-04-30T22:01:09.343Z,11.38
2023-04-30T22:03:37.767Z,11.35
2023-04-30T22:06:06.024Z,11.33
2023-04-30T22:08:34.557Z,11.30
2023-04-30T22:11:04.630Z,11.27
2023-04-30T22:13:32.477Z,11.23
2023-04-30T22:16:01.374Z,11.19
2023-04-30T22:18:29.456Z,11.14
2023-04-30T22:20:57.550Z,11.08
2023-04-30T22:23:25.772Z,11.03
2023-04-30T22:25:53.671Z,10.99
2023-04-30T22:28:23.549Z,10.92
2023-04-30T22:30:58.996Z,10.86
2023-04-30T22:33:27.471Z,10.82
2023-04-30T22:35:56.203Z,10.80
2023-04-30T22:38:24.091Z,10.77
2023-04-30T22:40:52.104Z,10.74
2023-04-30T22:43:19.978Z,10.70
2023-04-30T22:45:47.940Z,10.67
2023-04-30T22:48:16.506Z,10.67
2023-04-30T22:50:45.002Z,10.65
2023-04-30T22:53:13.526Z,10.64
2023-04-30T22:55:41.518Z,10.61
2023-04-30T22:58:09.361Z,10.60
2023-04-30T23:00:37.535Z,10.58
2023-04-30T23:03:05.637Z,10.54
2023-04-30T23:05:33.655Z,10.50
2023-04-30T23:08:01.556Z,10.47
2023-04-30T23:10:29.629Z,10.46
2023-04-30T23:12:58.830Z,10.46
2023-04-30T23:15:27.069Z,10.46
2023-04-30T23:17:55.922Z,10.46
2023-04-30T23:20:23.882Z,10.48
2023-04-30T23:22:51.909Z,10.52
2023-04-30T23:25:20.287Z,10.56
2023-04-30T23:27:48.400Z,10.59
2023-04-30T23:30:16.921Z,10.61
2023-04-30T23:32:44.770Z,10.62
2023-04-30T23:35:12.875Z,10.61
2023-04-30T23:37:41.171Z,10.62
2023-04-30T23:40:09.883Z,10.63
2023-04-30T23:42:37.841Z,10.64
2023-04-30T23:45:06.467Z,10.65
2023-04-30T23:47:36.964Z,10.66
2023-04-30T23:50:05.628Z,10.67
2023-04-30T23:52:34.839Z,10.65
2023-04-30T23:55:03.801Z,10.64
2023-04-30T23:57:31.764Z,10.58
